CheckWX is a tool to help pilots better visualize weather data.  It is not intended as a substitute for an official pre-flight weather briefing.

07:20:55 UTC

YBTL TAF
Townsville Airport
Townsville, Australia
TAF YBTL 160503Z 1606/1706 06014KT 9999 FEW035 FEW060 FM160900 16007KT 9999 FEW025 FEW060 FM170100 06014KT 9999 FEW035 FEW060

Jun-16@
06:00 UTC

Jun-16 @ 06:00 UTC

Jun-16@
09:00 UTC

Jun-16 @ 09:00 UTC

TAF YBTL 160503Z 1606/1706 06014KT 9999 FEW035 FEW060
Wind
  • 060° at 14 KTS
Cloud Levels
  • Few at 3,500' AGL
  • Few at 6,000' AGL

Jun-16@
09:00 UTC

Jun-16 @ 09:00 UTC

Jun-17@
01:00 UTC

Jun-17 @ 01:00 UTC

FM160900 16007KT 9999 FEW025 FEW060

From

From Standard forecast or significant change

Wind
  • 160° at 7 KTS
Cloud Levels
  • Few at 2,500' AGL
  • Few at 6,000' AGL

Jun-17@
01:00 UTC

Jun-17 @ 01:00 UTC

Jun-17@
06:00 UTC

Jun-17 @ 06:00 UTC

FM170100 06014KT 9999 FEW035 FEW060

From

From Standard forecast or significant change

Wind
  • 060° at 14 KTS
Cloud Levels
  • Few at 3,500' AGL
  • Few at 6,000' AGL